Time;durP1;ratioP1;P1;durP2;ratioP2;P2;SDS_P1;SDS_P2;PMS_P1;PMS_P2;Temp;Humidity;BMP_temperature;BMP_pressure;BME280_temperature;BME280_humidity;BME280_pressure;Samples;Min_cycle;Max_cycle;Signal;HPM_P1;HPM_P2
2023/01/26 00:01:28;;;;;;;54.10;33.67;;;4.90;99.90;;;;;;6213007;23;20012;-83
2023/01/26 00:03:54;;;;;;;52.17;33.22;;;4.90;99.90;;;;;;6185936;23;20005;-91
2023/01/26 00:06:20;;;;;;;53.50;34.92;;;4.90;99.90;;;;;;6212858;23;20036;-93
2023/01/26 00:08:48;;;;;;;55.20;32.50;;;4.80;99.90;;;;;;6212060;23;20001;-89
2023/01/26 00:11:17;;;;;;;54.40;32.17;;;4.90;99.90;;;;;;6212278;23;20501;-91
2023/01/26 00:13:43;;;;;;;48.88;31.75;;;4.90;99.90;;;;;;6212006;23;20001;-91
2023/01/26 00:16:11;;;;;;;55.40;31.58;;;4.90;99.90;;;;;;6211853;23;20005;-90
2023/01/26 00:18:38;;;;;;;55.87;33.40;;;4.90;99.90;;;;;;6213510;23;20000;-90
2023/01/26 00:21:05;;;;;;;49.28;31.33;;;4.90;99.90;;;;;;6213499;23;20306;-90
2023/01/26 00:23:33;;;;;;;52.13;31.95;;;4.90;99.90;;;;;;6211706;23;20067;-92
2023/01/26 00:25:59;;;;;;;50.08;32.35;;;4.90;99.90;;;;;;6212454;23;20211;-91
2023/01/26 00:28:25;;;;;;;52.83;31.33;;;4.90;99.90;;;;;;6212406;23;20012;-87
2023/01/26 00:30:50;;;;;;;53.08;33.13;;;4.90;99.90;;;;;;6212849;23;20008;-90
2023/01/26 00:33:16;;;;;;;56.05;33.15;;;4.90;99.90;;;;;;6214020;23;20005;-91
2023/01/26 00:35:43;;;;;;;54.28;32.40;;;4.90;99.90;;;;;;6214269;23;20000;-90
2023/01/26 00:38:10;;;;;;;52.33;32.38;;;4.90;99.90;;;;;;6215944;23;20007;-92
2023/01/26 00:40:36;;;;;;;47.25;30.80;;;4.90;99.90;;;;;;6189439;23;20361;-89
2023/01/26 00:43:02;;;;;;;52.72;33.85;;;4.90;99.90;;;;;;6214861;23;20096;-91
2023/01/26 00:45:27;;;;;;;54.88;33.63;;;4.80;99.90;;;;;;6213826;23;20004;-91
2023/01/26 00:47:53;;;;;;;60.65;34.42;;;4.80;99.90;;;;;;6212246;23;20330;-90
2023/01/26 00:50:19;;;;;;;54.10;34.03;;;4.80;99.90;;;;;;6212809;23;20000;-89
2023/01/26 00:52:44;;;;;;;58.40;34.45;;;4.80;99.90;;;;;;6214817;23;20056;-90
2023/01/26 00:55:10;;;;;;;54.60;35.33;;;5.00;99.90;;;;;;6214965;23;20008;-86
2023/01/26 00:57:35;;;;;;;52.17;33.45;;;4.80;99.90;;;;;;6215159;23;20000;-91
2023/01/26 01:00:01;;;;;;;53.40;33.92;;;4.80;99.90;;;;;;6213467;23;20434;-90
2023/01/26 01:02:27;;;;;;;51.10;31.65;;;4.80;99.90;;;;;;6211601;23;20075;-89
2023/01/26 01:04:52;;;;;;;53.70;33.10;;;4.80;99.90;;;;;;6184791;23;20011;-88
2023/01/26 01:07:18;;;;;;;52.28;33.00;;;4.80;99.90;;;;;;6184967;23;20452;-88
2023/01/26 01:09:45;;;;;;;50.92;33.13;;;4.80;99.90;;;;;;6211377;23;20001;-90
2023/01/26 01:12:10;;;;;;;53.10;33.55;;;4.80;99.90;;;;;;6184997;23;20333;-85
2023/01/26 01:14:36;;;;;;;53.63;33.88;;;4.80;99.90;;;;;;6212341;23;20000;-93
2023/01/26 01:17:02;;;;;;;53.05;32.67;;;4.70;99.90;;;;;;6211256;23;20329;-91
2023/01/26 01:19:28;;;;;;;52.78;34.22;;;4.70;99.90;;;;;;6184749;23;20004;-92
2023/01/26 01:21:53;;;;;;;50.85;33.53;;;4.80;99.90;;;;;;6211097;23;20078;-92
2023/01/26 01:24:19;;;;;;;52.63;33.25;;;4.70;99.90;;;;;;6211413;23;20452;-92
2023/01/26 01:26:45;;;;;;;52.53;33.97;;;4.70;99.90;;;;;;6210798;23;20654;-89
2023/01/26 01:29:12;;;;;;;53.63;34.03;;;4.60;99.90;;;;;;6211964;23;20103;-91
2023/01/26 01:31:38;;;;;;;49.28;32.72;;;4.60;99.90;;;;;;6211924;23;20338;-91
2023/01/26 01:34:03;;;;;;;53.90;34.28;;;4.50;99.90;;;;;;6184866;23;20012;-91
2023/01/26 01:36:30;;;;;;;53.03;32.85;;;4.40;99.90;;;;;;6211040;23;20047;-91
2023/01/26 01:38:56;;;;;;;51.22;32.15;;;4.40;99.90;;;;;;6184422;23;20440;-89
2023/01/26 01:41:22;;;;;;;50.40;32.55;;;4.30;99.90;;;;;;6184412;23;20015;-91
2023/01/26 01:43:48;;;;;;;51.20;32.50;;;4.40;99.90;;;;;;6211028;23;19996;-91
2023/01/26 01:46:20;;;;;;;53.70;34.28;;;4.40;99.90;;;;;;6211345;23;20047;-90
2023/01/26 01:48:48;;;;;;;51.75;31.75;;;4.40;99.90;;;;;;6212853;23;20056;-91
2023/01/26 01:51:33;;;;;;;46.35;31.52;;;4.30;99.90;;;;;;6213268;23;20008;-90
2023/01/26 01:54:04;;;;;;;45.58;30.83;;;4.30;99.90;;;;;;6212100;23;20005;-90
2023/01/26 01:56:32;;;;;;;45.83;30.15;;;4.30;99.90;;;;;;6212170;23;20000;-92
2023/01/26 01:59:00;;;;;;;45.90;30.45;;;4.40;99.90;;;;;;6213193;23;20091;-92
2023/01/26 02:01:27;;;;;;;43.70;28.80;;;4.40;99.90;;;;;;6214851;23;20437;-92
2023/01/26 02:03:58;;;;;;;43.25;28.50;;;4.50;99.90;;;;;;6214028;23;20000;-92
2023/01/26 02:06:49;;;;;;;42.70;29.00;;;4.40;99.90;;;;;;6214591;23;20043;-91
2023/01/26 02:12:07;;;;;;;43.38;28.10;;;4.60;99.90;;;;;;6212397;23;20196;-93
2023/01/26 02:14:33;;;;;;;43.08;29.48;;;4.50;99.90;;;;;;6212765;23;20004;-92
2023/01/26 02:16:59;;;;;;;45.10;30.27;;;4.60;99.90;;;;;;6211925;23;20007;-89
2023/01/26 02:19:36;;;;;;;46.33;31.30;;;4.50;99.90;;;;;;6210900;23;20020;-91
2023/01/26 02:22:10;;;;;;;49.33;32.95;;;4.50;99.90;;;;;;6211872;23;20000;-91
2023/01/26 02:24:39;;;;;;;47.65;30.58;;;4.40;99.90;;;;;;6211307;23;20008;-91
2023/01/26 02:27:05;;;;;;;47.63;31.98;;;4.50;99.90;;;;;;6179584;23;20288;-92
2023/01/26 02:29:31;;;;;;;49.25;30.98;;;4.60;99.90;;;;;;6179181;23;20001;-90
2023/01/26 02:31:56;;;;;;;43.75;30.73;;;4.60;99.90;;;;;;6180569;23;20009;-88
2023/01/26 02:34:27;;;;;;;47.75;32.33;;;4.60;99.90;;;;;;6180365;23;20030;-92
2023/01/26 02:36:57;;;;;;;51.95;33.97;;;4.70;99.90;;;;;;6181206;23;20005;-92
2023/01/26 02:39:36;;;;;;;48.75;32.95;;;4.60;99.90;;;;;;6180769;23;20017;-89
2023/01/26 02:44:47;;;;;;;49.10;31.17;;;4.60;99.90;;;;;;6180229;23;20058;-89
2023/01/26 02:47:17;;;;;;;47.78;31.88;;;4.60;99.90;;;;;;6179918;23;20346;-90
2023/01/26 02:49:46;;;;;;;48.40;31.55;;;4.60;99.90;;;;;;6180256;23;20009;-87
2023/01/26 02:52:13;;;;;;;47.00;31.80;;;4.60;99.90;;;;;;6179292;23;20501;-90
2023/01/26 02:57:24;;;;;;;53.20;35.17;;;4.70;99.90;;;;;;6180016;23;20071;-87
2023/01/26 02:59:50;;;;;;;55.10;35.25;;;4.40;99.90;;;;;;6180310;23;20059;-92
2023/01/26 03:02:16;;;;;;;56.70;34.50;;;4.30;99.90;;;;;;6179606;23;20002;-90
2023/01/26 03:04:43;;;;;;;52.75;34.00;;;4.00;99.90;;;;;;6181232;23;20005;-89
2023/01/26 03:07:09;;;;;;;54.65;33.28;;;4.20;99.90;;;;;;6181445;23;20001;-88
2023/01/26 03:09:34;;;;;;;56.10;35.20;;;4.20;99.90;;;;;;6182268;23;19997;-89
2023/01/26 03:12:00;;;;;;;56.38;33.83;;;4.10;99.90;;;;;;6182331;23;20028;-90
2023/01/26 03:14:26;;;;;;;55.03;34.97;;;4.10;99.90;;;;;;6182065;23;20434;-90
2023/01/26 03:16:51;;;;;;;56.97;36.58;;;4.00;99.90;;;;;;6183556;23;20004;-89
2023/01/26 03:27:36;;;;;;;53.25;33.45;;;4.00;99.90;;;;;;6200292;23;20019;-87
2023/01/26 03:30:01;;;;;;;49.63;32.50;;;3.90;99.90;;;;;;6211736;23;20099;-88
2023/01/26 03:32:27;;;;;;;53.50;34.22;;;3.90;99.90;;;;;;6211695;23;20452;-89
2023/01/26 03:34:53;;;;;;;57.78;35.13;;;3.80;99.90;;;;;;6211702;23;20005;-91
2023/01/26 03:37:22;;;;;;;81.13;35.47;;;3.90;99.90;;;;;;6186116;23;20008;-86
2023/01/26 03:56:21;;;;;;;52.67;33.53;;;4.00;99.90;;;;;;6211503;23;20024;-85
2023/01/26 03:58:50;;;;;;;47.08;32.65;;;4.00;99.90;;;;;;6185513;23;20092;-91
2023/01/26 04:01:20;;;;;;;51.47;33.53;;;4.10;99.90;;;;;;6212073;23;20008;-88
2023/01/26 04:09:19;;;;;;;49.40;31.75;;;4.20;99.90;;;;;;6212763;23;20012;-91
2023/01/26 04:11:46;;;;;;;48.15;31.88;;;4.20;99.90;;;;;;6185198;23;20509;-87
2023/01/26 04:22:27;;;;;;;45.92;30.70;;;4.30;99.90;;;;;;6211177;23;20012;-87
2023/01/26 04:24:53;;;;;;;46.45;30.65;;;4.30;99.90;;;;;;6211463;23;20005;-86
2023/01/26 04:27:18;;;;;;;42.53;29.92;;;4.30;99.90;;;;;;6212321;23;20009;-88
2023/01/26 04:29:44;;;;;;;46.38;30.58;;;4.30;99.90;;;;;;6211334;23;20001;-89
2023/01/26 04:32:09;;;;;;;44.47;27.52;;;4.40;99.90;;;;;;6211670;23;20075;-89
2023/01/26 04:34:35;;;;;;;42.35;28.60;;;4.40;99.90;;;;;;6211119;23;20035;-90
2023/01/26 04:37:01;;;;;;;40.75;27.00;;;4.50;99.90;;;;;;6211074;23;20051;-88
2023/01/26 04:39:26;;;;;;;45.90;29.95;;;4.50;99.90;;;;;;6184579;23;20004;-86
2023/01/26 04:41:52;;;;;;;45.47;27.85;;;4.50;99.90;;;;;;6185005;23;20386;-86
2023/01/26 04:44:17;;;;;;;38.30;26.67;;;4.60;99.90;;;;;;6211998;23;20001;-89
2023/01/26 04:46:43;;;;;;;36.65;24.92;;;4.70;99.90;;;;;;6184252;23;20015;-86
2023/01/26 04:49:09;;;;;;;36.80;24.25;;;4.70;99.90;;;;;;6211020;23;20434;-88
2023/01/26 04:51:34;;;;;;;34.53;23.35;;;4.80;99.90;;;;;;6210979;23;20001;-88
2023/01/26 04:54:00;;;;;;;36.80;24.27;;;4.90;99.90;;;;;;6211334;23;20024;-88
2023/01/26 04:56:29;;;;;;;35.92;22.85;;;4.90;99.90;;;;;;6211447;23;20008;-91
2023/01/26 04:58:56;;;;;;;34.45;20.08;;;5.00;99.90;;;;;;6211304;23;20001;-90
2023/01/26 05:01:25;;;;;;;29.90;19.17;;;5.10;99.90;;;;;;6212041;23;20060;-90
2023/01/26 05:03:51;;;;;;;32.95;18.55;;;5.20;99.90;;;;;;6185430;23;20001;-87
2023/01/26 05:06:17;;;;;;;25.35;17.20;;;5.30;99.90;;;;;;6211278;23;20663;-89
2023/01/26 05:08:43;;;;;;;25.05;16.23;;;5.30;99.90;;;;;;6209889;23;20280;-88
2023/01/26 05:11:09;;;;;;;24.05;15.15;;;5.60;99.90;;;;;;6183478;23;20008;-87
2023/01/26 05:13:36;;;;;;;20.70;14.43;;;6.00;99.90;;;;;;6210840;23;20118;-89
2023/01/26 05:16:02;;;;;;;22.25;13.88;;;5.70;99.90;;;;;;6184224;23;20004;-89
2023/01/26 05:18:28;;;;;;;21.90;13.80;;;5.60;99.90;;;;;;6210902;23;20028;-88
2023/01/26 05:20:54;;;;;;;26.10;14.35;;;5.70;99.90;;;;;;6210715;23;20013;-89
2023/01/26 05:23:20;;;;;;;19.80;12.50;;;5.90;99.90;;;;;;6185417;23;20005;-89
2023/01/26 05:25:46;;;;;;;22.10;13.10;;;5.80;99.90;;;;;;6210791;23;20008;-88
2023/01/26 05:28:11;;;;;;;21.75;12.98;;;6.20;99.90;;;;;;6210177;23;20013;-87
2023/01/26 05:30:37;;;;;;;19.42;11.50;;;5.90;99.90;;;;;;6183522;23;20005;-86
2023/01/26 05:33:08;;;;;;;21.58;12.90;;;5.80;99.90;;;;;;6209416;23;20003;-86
2023/01/26 05:35:34;;;;;;;19.25;12.32;;;6.30;99.90;;;;;;6210496;23;20314;-86
2023/01/26 05:38:00;;;;;;;16.52;11.68;;;6.00;99.90;;;;;;6203081;23;20440;-87
2023/01/26 05:40:26;;;;;;;18.05;10.95;;;6.40;99.90;;;;;;6180621;23;20021;-89
2023/01/26 05:42:53;;;;;;;20.85;10.98;;;6.20;99.90;;;;;;6210724;23;20001;-88
2023/01/26 05:45:19;;;;;;;17.10;11.15;;;6.40;99.90;;;;;;6209900;23;20426;-89
2023/01/26 05:47:50;;;;;;;16.58;10.93;;;6.30;99.90;;;;;;6209819;23;20210;-91
2023/01/26 05:50:16;;;;;;;15.10;10.70;;;6.30;99.90;;;;;;6211023;23;20005;-88
2023/01/26 05:52:46;;;;;;;17.13;10.93;;;6.20;99.90;;;;;;6211001;23;20000;-92
2023/01/26 05:55:12;;;;;;;14.30;10.27;;;6.30;99.90;;;;;;6185828;23;20008;-92
2023/01/26 05:57:38;;;;;;;17.48;11.25;;;6.40;99.90;;;;;;6211164;23;20001;-90
2023/01/26 06:00:05;;;;;;;17.13;11.13;;;6.40;99.90;;;;;;6210301;23;20067;-90
2023/01/26 06:02:30;;;;;;;15.57;10.00;;;6.30;99.90;;;;;;6210917;23;20001;-91
2023/01/26 06:04:56;;;;;;;17.00;10.65;;;6.30;99.90;;;;;;6210942;23;20008;-89
2023/01/26 06:07:25;;;;;;;17.25;10.50;;;6.60;99.90;;;;;;6212408;23;19997;-90
2023/01/26 06:09:51;;;;;;;13.68;9.90;;;6.30;99.90;;;;;;6185652;23;20353;-89
2023/01/26 06:12:18;;;;;;;17.73;10.90;;;6.20;99.90;;;;;;6183970;23;20009;-88
2023/01/26 06:14:44;;;;;;;16.90;11.15;;;6.70;99.90;;;;;;6211276;23;20091;-93
2023/01/26 06:17:11;;;;;;;15.48;9.88;;;6.20;99.90;;;;;;6184275;23;20005;-88
2023/01/26 06:19:37;;;;;;;15.20;10.15;;;6.30;99.90;;;;;;6210668;23;20005;-87
2023/01/26 06:22:13;;;;;;;16.27;10.18;;;6.70;99.90;;;;;;6215037;23;20067;-86
2023/01/26 06:24:39;;;;;;;14.80;9.05;;;6.50;99.90;;;;;;6187692;23;20083;-88
2023/01/26 06:27:10;;;;;;;12.80;8.30;;;6.60;99.90;;;;;;6213751;23;20008;-89
2023/01/26 06:29:36;;;;;;;12.90;7.70;;;6.30;99.90;;;;;;6183783;23;20008;-89
2023/01/26 06:32:02;;;;;;;11.43;8.40;;;6.30;99.90;;;;;;6184281;23;20000;-88
2023/01/26 06:34:27;;;;;;;14.45;8.82;;;6.30;99.90;;;;;;6210511;23;20012;-88
2023/01/26 06:36:53;;;;;;;14.85;8.90;;;6.30;99.90;;;;;;6211259;23;20080;-88
2023/01/26 06:39:19;;;;;;;12.27;8.65;;;6.70;99.90;;;;;;6184329;23;20020;-88
2023/01/26 06:41:44;;;;;;;15.18;9.02;;;6.20;99.90;;;;;;6212314;23;20004;-87
2023/01/26 06:44:11;;;;;;;13.23;9.38;;;6.30;99.90;;;;;;6212593;23;19997;-90
2023/01/26 06:46:37;;;;;;;13.35;8.88;;;6.30;99.90;;;;;;6212836;23;20004;-88
2023/01/26 06:49:03;;;;;;;11.18;8.93;;;6.60;99.90;;;;;;6185708;23;20319;-90
2023/01/26 06:52:03;;;;;;;11.15;8.48;;;6.30;99.90;;;;;;6212736;23;20460;-89
2023/01/26 06:54:28;;;;;;;12.52;8.98;;;6.30;99.90;;;;;;6186577;23;20096;-90
2023/01/26 06:56:54;;;;;;;11.82;9.27;;;6.40;99.90;;;;;;6187368;23;20445;-90
2023/01/26 06:59:20;;;;;;;11.75;9.25;;;6.40;99.90;;;;;;6212377;23;20334;-90
2023/01/26 07:01:47;;;;;;;12.32;9.68;;;6.30;99.90;;;;;;6212630;23;20005;-89
2023/01/26 07:04:13;;;;;;;11.88;8.80;;;6.90;99.90;;;;;;6185699;23;20086;-90
2023/01/26 07:06:39;;;;;;;11.15;8.85;;;6.30;99.90;;;;;;6185606;23;20013;-88
2023/01/26 07:09:05;;;;;;;13.57;8.98;;;6.40;99.90;;;;;;6211890;23;19997;-90
2023/01/26 07:11:31;;;;;;;11.23;8.38;;;6.60;99.90;;;;;;6185604;23;20096;-89
2023/01/26 07:13:58;;;;;;;14.63;8.77;;;6.40;99.90;;;;;;6186550;23;20062;-89
2023/01/26 07:16:23;;;;;;;13.82;9.63;;;6.50;99.90;;;;;;6185810;23;20460;-91
2023/01/26 07:18:49;;;;;;;14.90;9.25;;;6.60;99.90;;;;;;6210768;23;20324;-89
2023/01/26 07:21:17;;;;;;;11.60;9.30;;;6.40;99.90;;;;;;6212092;23;20012;-88
2023/01/26 07:23:43;;;;;;;11.90;9.50;;;6.60;99.90;;;;;;6212384;23;20003;-91
2023/01/26 07:26:09;;;;;;;11.65;7.40;;;6.40;99.90;;;;;;6185761;23;20011;-88
2023/01/26 07:28:35;;;;;;;12.40;7.10;;;6.60;99.90;;;;;;6185533;23;20091;-90
2023/01/26 07:31:03;;;;;;;9.75;7.25;;;6.40;99.90;;;;;;6212314;23;19996;-88
2023/01/26 07:33:30;;;;;;;13.57;6.90;;;6.80;99.90;;;;;;6186296;23;20004;-88
2023/01/26 07:35:56;;;;;;;12.85;6.57;;;6.60;99.90;;;;;;6186281;23;20323;-88
2023/01/26 07:38:22;;;;;;;10.60;5.18;;;6.50;99.90;;;;;;6212144;23;20353;-90
2023/01/26 07:40:49;;;;;;;11.70;5.50;;;6.50;99.90;;;;;;6211954;23;20016;-88
2023/01/26 07:43:15;;;;;;;10.20;5.38;;;6.70;99.90;;;;;;6185305;23;20315;-90
2023/01/26 07:45:44;;;;;;;10.95;4.90;;;6.50;99.90;;;;;;6185424;23;20345;-90
2023/01/26 07:48:10;;;;;;;10.20;4.75;;;6.60;99.90;;;;;;6211719;23;20056;-90
2023/01/26 07:50:36;;;;;;;10.77;5.05;;;6.40;99.90;;;;;;6184398;23;20349;-88
2023/01/26 07:53:02;;;;;;;7.43;4.50;;;6.60;99.90;;;;;;6211929;23;20003;-89
2023/01/26 07:55:27;;;;;;;7.00;4.30;;;6.60;99.90;;;;;;6212494;23;20004;-88
2023/01/26 07:57:53;;;;;;;6.30;4.20;;;6.80;99.90;;;;;;6210040;23;20083;-88
2023/01/26 08:00:19;;;;;;;12.30;4.45;;;6.70;99.90;;;;;;6211394;23;20091;-89
2023/01/26 08:02:49;;;;;;;6.78;3.75;;;6.30;99.90;;;;;;6211520;23;20036;-87
2023/01/26 08:05:15;;;;;;;13.68;4.05;;;6.70;99.90;;;;;;6184753;23;20039;-88
2023/01/26 08:07:40;;;;;;;10.00;3.88;;;6.40;99.90;;;;;;6185318;23;20001;-87
2023/01/26 08:10:06;;;;;;;8.60;3.35;;;6.30;99.90;;;;;;6211397;23;20015;-88
2023/01/26 08:12:34;;;;;;;11.40;3.67;;;6.40;99.90;;;;;;6185735;23;20001;-87
2023/01/26 08:15:00;;;;;;;8.43;3.57;;;6.40;99.90;;;;;;6212301;23;20004;-87
2023/01/26 08:17:28;;;;;;;8.32;3.55;;;6.30;99.90;;;;;;6184898;23;20254;-87
2023/01/26 08:19:53;;;;;;;6.95;3.13;;;6.40;99.90;;;;;;6211174;23;20345;-87
2023/01/26 08:22:19;;;;;;;5.32;2.97;;;6.50;99.90;;;;;;6211357;23;20000;-87
2023/01/26 08:24:45;;;;;;;4.80;2.72;;;6.90;99.90;;;;;;6211568;23;20028;-89
2023/01/26 08:27:11;;;;;;;7.43;3.30;;;6.70;99.90;;;;;;6211295;23;20008;-88
2023/01/26 08:29:36;;;;;;;8.73;3.45;;;6.40;99.90;;;;;;6211245;23;20004;-88
2023/01/26 08:32:02;;;;;;;12.05;3.25;;;6.40;99.90;;;;;;6212340;23;20011;-88
2023/01/26 08:34:28;;;;;;;5.53;3.28;;;6.50;99.90;;;;;;6185074;23;20100;-88
2023/01/26 08:36:54;;;;;;;6.68;3.20;;;6.40;99.90;;;;;;6211414;23;20457;-88
2023/01/26 08:39:19;;;;;;;9.82;2.53;;;6.70;99.90;;;;;;6209721;23;20008;-89
2023/01/26 08:41:46;;;;;;;4.38;2.90;;;6.40;99.90;;;;;;6211588;23;20016;-89
2023/01/26 08:44:12;;;;;;;5.65;3.00;;;6.90;99.90;;;;;;6210925;23;19996;-87
2023/01/26 08:46:37;;;;;;;15.35;3.47;;;6.30;99.90;;;;;;6184246;23;20008;-89
2023/01/26 08:49:03;;;;;;;10.52;3.55;;;6.50;99.90;;;;;;6212072;23;20115;-89
2023/01/26 08:51:29;;;;;;;13.43;3.63;;;6.70;99.90;;;;;;6211312;23;20340;-88
2023/01/26 08:53:54;;;;;;;11.80;3.60;;;6.50;99.90;;;;;;6209808;23;20941;-88
2023/01/26 08:56:20;;;;;;;15.82;3.60;;;6.70;99.90;;;;;;6211481;23;20020;-89
2023/01/26 08:58:46;;;;;;;6.70;2.90;;;6.60;99.90;;;;;;6186613;23;20032;-89
2023/01/26 09:01:14;;;;;;;6.63;3.25;;;6.50;99.90;;;;;;6186389;23;20039;-88
2023/01/26 09:03:40;;;;;;;9.60;3.30;;;6.80;99.90;;;;;;6212994;23;20004;-88
2023/01/26 09:06:08;;;;;;;12.63;3.45;;;6.70;99.90;;;;;;6211429;23;20011;-89
2023/01/26 09:08:34;;;;;;;14.02;3.85;;;6.60;99.90;;;;;;6211894;23;20051;-88
2023/01/26 09:11:00;;;;;;;9.55;3.35;;;6.50;99.90;;;;;;6185007;23;20092;-88
2023/01/26 09:13:26;;;;;;;13.55;3.70;;;6.50;99.90;;;;;;6210921;23;20032;-87
2023/01/26 09:15:52;;;;;;;12.13;3.92;;;6.50;99.90;;;;;;6210973;23;20072;-88
2023/01/26 09:18:17;;;;;;;15.25;4.25;;;6.90;99.90;;;;;;6210806;23;19997;-88
2023/01/26 09:20:43;;;;;;;15.10;4.15;;;6.60;99.90;;;;;;6210796;23;20039;-88
2023/01/26 09:23:11;;;;;;;12.05;3.55;;;6.50;99.90;;;;;;6211188;23;20001;-88
2023/01/26 09:25:37;;;;;;;12.38;3.70;;;6.90;99.90;;;;;;6211018;23;20005;-88
2023/01/26 09:28:04;;;;;;;14.98;3.60;;;6.50;99.90;;;;;;6211630;23;20009;-87
2023/01/26 09:30:29;;;;;;;15.43;3.35;;;6.50;99.90;;;;;;6210901;23;20001;-89
2023/01/26 09:33:00;;;;;;;14.27;3.30;;;6.70;99.90;;;;;;6183835;23;20464;-90
2023/01/26 09:35:27;;;;;;;11.52;2.67;;;6.70;99.90;;;;;;6210922;23;20055;-87
2023/01/26 09:37:52;;;;;;;15.55;3.53;;;6.60;99.90;;;;;;6184157;23;20007;-88
2023/01/26 09:40:35;;;;;;;9.18;2.55;;;6.60;99.90;;;;;;6210700;23;20097;-89
2023/01/26 09:43:19;;;;;;;12.13;2.63;;;6.70;99.90;;;;;;6183954;23;20062;-88
2023/01/26 09:45:58;;;;;;;9.45;2.88;;;6.70;99.90;;;;;;6210735;23;20067;-88
2023/01/26 09:48:46;;;;;;;9.80;2.28;;;6.60;99.90;;;;;;6183831;23;20000;-89
2023/01/26 09:51:18;;;;;;;15.30;2.80;;;6.60;99.90;;;;;;6211127;23;20000;-88
2023/01/26 09:54:16;;;;;;;12.73;2.58;;;6.70;99.90;;;;;;6210571;23;20005;-89
2023/01/26 09:56:42;;;;;;;14.77;2.85;;;6.50;99.90;;;;;;6153856;23;20437;-88
2023/01/26 09:59:21;;;;;;;9.05;2.40;;;6.60;99.90;;;;;;6184173;23;20019;-89
2023/01/26 10:01:56;;;;;;;;;;;6.60;99.90;;;;;;6184355;23;20040;-88
2023/01/26 10:04:38;;;;;;;11.85;2.70;;;6.60;99.90;;;;;;6210706;23;19900;-87
2023/01/26 10:07:13;;;;;;;12.75;2.85;;;6.70;99.90;;;;;;6184883;23;20088;-87
2023/01/26 10:09:43;;;;;;;12.23;2.30;;;6.60;99.90;;;;;;6210467;23;20001;-88
2023/01/26 10:12:30;;;;;;;12.05;2.80;;;6.70;99.90;;;;;;6184043;23;20345;-87
2023/01/26 10:15:05;;;;;;;9.02;2.63;;;6.60;99.90;;;;;;6183778;23;20070;-90
2023/01/26 10:17:39;;;;;;;9.05;2.80;;;6.70;99.90;;;;;;6210519;23;20031;-88
2023/01/26 10:20:05;;;;;;;7.18;2.30;;;6.70;99.90;;;;;;6184558;23;20056;-88
2023/01/26 10:23:10;;;;;;;13.18;2.85;;;6.90;99.90;;;;;;6210392;23;19997;-89
2023/01/26 10:25:39;;;;;;;9.80;2.35;;;6.80;99.90;;;;;;6194211;23;20127;-87
2023/01/26 10:28:15;;;;;;;;;;;7.10;99.90;;;;;;6180260;23;20017;-91
2023/01/26 10:30:43;;;;;;;12.43;2.28;;;6.80;99.90;;;;;;6180667;23;19923;-89
2023/01/26 10:33:32;;;;;;;8.25;3.00;;;6.90;99.90;;;;;;6179476;23;20029;-89
2023/01/26 10:36:00;;;;;;;9.35;2.45;;;7.00;99.90;;;;;;6169220;23;20015;-89
2023/01/26 10:38:41;;;;;;;13.02;2.65;;;6.80;99.90;;;;;;6180743;23;19997;-90
2023/01/26 10:41:22;;;;;;;16.48;3.53;;;6.70;99.90;;;;;;6180361;23;20021;-88
2023/01/26 10:44:00;;;;;;;13.88;2.70;;;6.80;99.90;;;;;;6179184;23;20009;-88
2023/01/26 10:46:37;;;;;;;10.93;3.97;;;7.10;99.90;;;;;;6178873;23;20338;-88
2023/01/26 10:49:15;;;;;;;16.05;3.20;;;6.80;99.90;;;;;;6178763;23;20088;-88
2023/01/26 10:51:44;;;;;;;11.57;2.73;;;6.70;99.90;;;;;;6180858;23;20334;-89
2023/01/26 10:54:24;;;;;;;8.35;2.65;;;6.60;99.90;;;;;;6179557;23;20353;-89
2023/01/26 10:56:57;;;;;;;12.82;2.72;;;6.80;99.90;;;;;;6180552;23;19997;-89
2023/01/26 10:59:49;;;;;;;11.15;3.28;;;6.70;99.90;;;;;;6178573;23;20041;-88
2023/01/26 11:02:15;;;;;;;9.98;2.53;;;6.70;99.90;;;;;;6178779;23;20453;-88
2023/01/26 11:05:06;;;;;;;12.55;3.13;;;6.70;99.90;;;;;;6179789;23;20079;-87
2023/01/26 11:07:39;;;;;;;13.68;3.17;;;6.70;99.90;;;;;;6180930;23;20213;-90
2023/01/26 11:10:24;;;;;;;11.82;2.65;;;6.80;99.90;;;;;;6178938;23;20458;-89
2023/01/26 11:12:51;;;;;;;14.30;2.78;;;6.80;99.90;;;;;;6178733;23;20029;-88
2023/01/26 11:15:20;;;;;;;18.48;2.72;;;6.90;99.90;;;;;;6180757;23;20331;-88
2023/01/26 11:17:58;;;;;;;13.65;2.70;;;7.00;99.90;;;;;;6180353;23;20001;-88
2023/01/26 11:20:38;;;;;;;12.32;3.03;;;6.90;99.90;;;;;;6180566;23;20019;-88
2023/01/26 11:23:10;;;;;;;12.10;2.67;;;7.00;99.90;;;;;;6180320;23;19997;-88
2023/01/26 11:26:10;;;;;;;15.68;3.53;;;7.10;99.90;;;;;;6180325;23;20001;-89
2023/01/26 11:29:21;;;;;;;14.63;2.85;;;7.10;99.90;;;;;;6118664;23;20017;-90
2023/01/26 11:32:15;;;;;;;11.35;2.90;;;7.10;99.90;;;;;;6185370;23;20091;-88
2023/01/26 11:34:49;;;;;;;14.27;3.28;;;7.10;99.90;;;;;;6188491;23;20060;-89
2023/01/26 11:37:42;;;;;;;9.15;2.58;;;7.10;99.90;;;;;;6190194;23;20001;-91
2023/01/26 11:40:16;;;;;;;12.07;2.80;;;7.20;99.90;;;;;;6183037;23;20460;-89
2023/01/26 11:43:14;;;;;;;14.52;3.03;;;7.10;99.90;;;;;;6181823;23;20005;-90
2023/01/26 11:46:04;;;;;;;14.35;3.08;;;7.10;99.90;;;;;;6181718;23;20008;-89
2023/01/26 11:48:45;;;;;;;13.95;2.67;;;7.10;99.90;;;;;;6182156;23;20001;-90
2023/01/26 11:51:23;;;;;;;16.08;3.28;;;7.20;99.90;;;;;;6181402;23;20005;-89
2023/01/26 11:54:07;;;;;;;14.07;2.58;;;7.20;99.90;;;;;;6180293;23;20005;-90
2023/01/26 11:57:16;;;;;;;15.27;2.63;;;7.20;99.90;;;;;;6181772;23;20392;-89
2023/01/26 11:59:45;;;;;;;19.85;3.17;;;7.30;99.90;;;;;;6183081;23;20009;-88
2023/01/26 12:02:26;;;;;;;20.02;3.50;;;7.40;99.90;;;;;;6183036;23;19997;-90
2023/01/26 12:04:54;;;;;;;15.65;3.03;;;7.40;99.90;;;;;;6180389;23;20051;-89
2023/01/26 12:07:57;;;;;;;18.95;2.92;;;7.30;99.90;;;;;;6180456;23;20088;-89
2023/01/26 12:10:40;;;;;;;14.35;3.30;;;7.40;99.90;;;;;;6185553;23;20008;-88
2023/01/26 12:13:35;;;;;;;16.52;2.60;;;7.40;99.90;;;;;;6195552;23;20028;-88
2023/01/26 12:16:12;;;;;;;21.27;3.33;;;7.50;99.90;;;;;;6196032;23;19997;-89
2023/01/26 12:18:58;;;;;;;18.33;3.13;;;7.60;99.90;;;;;;6180955;23;20140;-89
2023/01/26 12:21:25;;;;;;;19.25;4.03;;;7.40;99.90;;;;;;6180477;23;20024;-92
2023/01/26 12:24:14;;;;;;;14.88;2.47;;;7.40;99.90;;;;;;6181978;23;20085;-88
2023/01/26 12:26:47;;;;;;;18.25;3.08;;;7.50;99.90;;;;;;6189927;23;20341;-90
2023/01/26 12:29:42;;;;;;;28.05;3.28;;;7.50;99.90;;;;;;6186660;23;20438;-93
2023/01/26 12:32:11;;;;;;;16.35;3.17;;;7.40;99.90;;;;;;6212227;23;20008;-90
2023/01/26 12:34:37;;;;;;;19.70;2.95;;;7.50;99.90;;;;;;6212190;23;20016;-91
2023/01/26 12:37:21;;;;;;;20.23;2.88;;;7.40;99.90;;;;;;6212127;23;20001;-89
2023/01/26 12:40:15;;;;;;;19.92;2.80;;;7.50;99.90;;;;;;6185275;23;20016;-89
2023/01/26 12:42:52;;;;;;;13.45;2.53;;;7.50;99.90;;;;;;6149641;23;20104;-89
2023/01/26 12:45:34;;;;;;;13.70;3.00;;;7.50;99.90;;;;;;6184528;23;20513;-89
2023/01/26 12:48:17;;;;;;;16.60;2.92;;;7.40;99.90;;;;;;6211610;23;20454;-90
2023/01/26 12:50:50;;;;;;;14.20;2.83;;;7.50;99.90;;;;;;6212950;23;20421;-90
2023/01/26 12:53:30;;;;;;;19.80;3.00;;;7.50;99.90;;;;;;6212840;23;20005;-89
2023/01/26 12:56:00;;;;;;;17.60;2.92;;;7.50;99.90;;;;;;6184897;23;20345;-87
2023/01/26 12:58:37;;;;;;;14.73;2.60;;;7.60;99.90;;;;;;6211361;23;20052;-89
2023/01/26 13:01:19;;;;;;;19.65;2.83;;;7.60;99.90;;;;;;6210938;23;20016;-89
2023/01/26 13:03:53;;;;;;;15.85;2.83;;;7.50;99.90;;;;;;6185936;23;20000;-88
2023/01/26 13:06:24;;;;;;;21.83;2.88;;;7.50;99.90;;;;;;6211335;23;20000;-89
2023/01/26 13:09:23;;;;;;;18.65;3.08;;;7.60;99.90;;;;;;6210899;23;20353;-89
2023/01/26 13:11:55;;;;;;;29.33;9.70;;;7.60;99.90;;;;;;6211037;23;20008;-89
2023/01/26 13:14:37;;;;;;;32.08;7.43;;;7.70;99.90;;;;;;6211223;23;20000;-89
2023/01/26 13:17:14;;;;;;;50.28;23.92;;;7.70;99.90;;;;;;6211099;23;20388;-91
2023/01/26 13:19:43;;;;;;;13.18;4.55;;;7.70;99.90;;;;;;6210816;23;20004;-88
2023/01/26 13:22:18;;;;;;;;;;;7.70;99.90;;;;;;6185096;23;20013;-89
2023/01/26 13:24:46;;;;;;;19.17;6.22;;;7.70;99.90;;;;;;6211878;23;19907;-91
2023/01/26 13:27:32;;;;;;;22.98;8.05;;;7.60;99.90;;;;;;6210928;23;20032;-88
2023/01/26 13:30:00;;;;;;;28.95;12.48;;;7.60;99.90;;;;;;6184016;23;20032;-89
2023/01/26 13:32:25;;;;;;;24.60;6.70;;;7.70;99.90;;;;;;6210724;23;20008;-89
2023/01/26 13:34:59;;;;;;;22.83;6.75;;;7.60;99.90;;;;;;6210717;23;20434;-88
2023/01/26 13:37:47;;;;;;;19.40;4.72;;;7.60;99.90;;;;;;6210850;23;20008;-89
2023/01/26 13:40:27;;;;;;;19.52;5.80;;;7.60;99.90;;;;;;6210891;23;20013;-89
2023/01/26 13:43:01;;;;;;;21.23;5.50;;;7.70;99.90;;;;;;6210770;23;20422;-89
2023/01/26 13:45:44;;;;;;;20.88;6.45;;;7.60;99.90;;;;;;6184103;23;20004;-88
2023/01/26 13:48:46;;;;;;;20.58;5.22;;;7.70;99.90;;;;;;6184002;23;20008;-88
2023/01/26 13:51:16;;;;;;;16.45;4.38;;;7.70;99.90;;;;;;6210841;23;20008;-88